createdAt,value
2019-02-03T00:00:06.136Z,233.80
2019-02-03T00:01:06.019Z,235.10
2019-02-03T00:02:06.029Z,249.20
2019-02-03T00:03:05.913Z,240.30
2019-02-03T00:04:12.605Z,244.00
2019-02-03T00:05:05.857Z,239.70
2019-02-03T00:06:05.874Z,244.30
2019-02-03T00:07:05.812Z,234.90
2019-02-03T00:08:05.903Z,236.90
2019-02-03T00:09:05.736Z,234.10
2019-02-03T00:10:05.711Z,239.30
2019-02-03T00:11:05.676Z,232.80
2019-02-03T00:12:05.656Z,225.20
2019-02-03T00:13:05.703Z,234.70
2019-02-03T00:14:05.655Z,221.10
2019-02-03T00:15:05.583Z,232.20
2019-02-03T00:16:05.517Z,222.00
2019-02-03T00:17:05.521Z,228.80
2019-02-03T00:18:05.469Z,229.60
2019-02-03T00:19:05.440Z,224.90
2019-02-03T00:20:05.397Z,225.20
2019-02-03T00:21:05.442Z,223.10
2019-02-03T00:22:05.332Z,226.60
2019-02-03T00:23:05.366Z,218.60
2019-02-03T00:24:05.258Z,222.10
2019-02-03T00:25:12.130Z,209.70
2019-02-03T00:26:05.381Z,216.20
2019-02-03T00:27:05.185Z,222.30
2019-02-03T00:28:05.145Z,215.40
2019-02-03T00:29:05.248Z,218.10
2019-02-03T00:30:05.072Z,216.60
2019-02-03T00:31:07.167Z,218.60
2019-02-03T00:32:05.013Z,213.30
2019-02-03T00:33:04.991Z,220.20
2019-02-03T00:34:04.951Z,228.40
2019-02-03T00:35:04.916Z,201.40
2019-02-03T00:36:04.879Z,205.40
2019-02-03T00:37:15.345Z,204.70
2019-02-03T00:38:04.828Z,211.20
2019-02-03T00:39:04.771Z,204.00
2019-02-03T00:40:04.751Z,204.30
2019-02-03T00:41:05.828Z,206.30
2019-02-03T00:42:04.688Z,201.20
2019-02-03T00:43:04.662Z,209.40
2019-02-03T00:44:04.628Z,205.40
2019-02-03T00:45:04.601Z,198.40
2019-02-03T00:46:04.561Z,214.60
2019-02-03T00:47:04.546Z,200.70
2019-02-03T00:48:04.583Z,200.70
2019-02-03T00:49:04.501Z,207.60
2019-02-03T00:50:04.430Z,212.70
2019-02-03T00:51:04.407Z,210.40
2019-02-03T00:52:06.466Z,210.30
2019-02-03T00:53:04.334Z,198.80
2019-02-03T00:54:04.415Z,204.60
2019-02-03T00:55:04.274Z,202.50
2019-02-03T00:56:04.322Z,207.70
2019-02-03T00:57:04.215Z,212.20
2019-02-03T00:58:04.297Z,212.80
2019-02-03T00:59:04.249Z,222.60
2019-02-03T01:00:04.126Z,216.80
2019-02-03T01:01:04.092Z,205.70
2019-02-03T01:02:04.163Z,223.80
2019-02-03T01:03:04.048Z,207.70
2019-02-03T01:04:04.075Z,209.60
2019-02-03T01:05:03.985Z,216.30
2019-02-03T01:06:03.996Z,209.50
2019-02-03T01:07:03.914Z,215.30
2019-02-03T01:08:04.932Z,222.00
2019-02-03T01:09:03.826Z,208.40
2019-02-03T01:10:03.869Z,212.70
2019-02-03T01:11:03.839Z,217.20
2019-02-03T01:12:04.854Z,219.90
2019-02-03T01:13:03.723Z,217.80
2019-02-03T01:14:03.769Z,217.40
2019-02-03T01:15:03.658Z,210.00
2019-02-03T01:16:03.655Z,210.10
2019-02-03T01:17:03.570Z,193.30
2019-02-03T01:18:03.561Z,204.70
2019-02-03T01:19:04.598Z,211.80
2019-02-03T01:20:03.475Z,220.70
2019-02-03T01:21:03.466Z,212.60
2019-02-03T01:22:04.504Z,206.40
2019-02-03T01:23:03.406Z,221.50
2019-02-03T01:24:03.445Z,210.10
2019-02-03T01:25:03.312Z,218.70
2019-02-03T01:26:03.312Z,211.10
2019-02-03T01:27:03.304Z,216.60
2019-02-03T01:28:04.243Z,214.80
2019-02-03T01:29:03.182Z,204.90
2019-02-03T01:30:03.224Z,228.00
2019-02-03T01:31:03.129Z,209.70
2019-02-03T01:32:03.136Z,202.10
2019-02-03T01:33:03.058Z,208.10
2019-02-03T01:34:03.050Z,208.30
2019-02-03T01:35:03.001Z,217.40
2019-02-03T01:36:03.066Z,220.70
2019-02-03T01:37:02.947Z,221.00
2019-02-03T01:38:02.982Z,222.10
2019-02-03T01:39:02.865Z,224.80
2019-02-03T01:40:02.888Z,209.50
2019-02-03T01:41:02.814Z,208.10
2019-02-03T01:42:02.797Z,220.90
2019-02-03T01:43:02.739Z,208.40
2019-02-03T01:44:02.815Z,209.60
2019-02-03T01:45:02.684Z,215.60
2019-02-03T01:46:02.656Z,216.40
2019-02-03T01:47:02.632Z,220.80
2019-02-03T01:48:02.631Z,210.20
2019-02-03T01:49:02.557Z,214.60
2019-02-03T01:50:02.553Z,210.40
2019-02-03T01:51:02.490Z,212.00
2019-02-03T01:52:02.455Z,202.60
2019-02-03T01:53:02.463Z,210.60
2019-02-03T01:54:02.413Z,215.60
2019-02-03T01:55:02.362Z,212.50
2019-02-03T01:56:02.370Z,211.10
2019-02-03T01:57:02.295Z,211.10
2019-02-03T01:58:02.434Z,204.10
2019-02-03T01:59:02.237Z,216.00
2019-02-03T02:00:03.341Z,211.50
2019-02-03T02:01:02.184Z,213.80
2019-02-03T02:02:02.192Z,220.60
2019-02-03T02:03:02.101Z,202.00
2019-02-03T02:04:02.116Z,209.80
2019-02-03T02:05:02.034Z,204.90
2019-02-03T02:06:02.131Z,207.70
2019-02-03T02:07:01.984Z,215.70
2019-02-03T02:08:01.971Z,205.80
2019-02-03T02:09:01.916Z,194.10
2019-02-03T02:10:01.881Z,197.30
2019-02-03T02:11:01.846Z,212.90
2019-02-03T02:12:03.906Z,202.60
2019-02-03T02:13:01.785Z,201.10
2019-02-03T02:14:03.816Z,188.10
2019-02-03T02:15:01.717Z,192.80
2019-02-03T02:16:01.694Z,199.30
2019-02-03T02:17:01.778Z,192.10
2019-02-03T02:18:01.691Z,197.70
2019-02-03T02:19:03.654Z,199.60
2019-02-03T02:20:01.565Z,201.50
2019-02-03T02:21:03.651Z,209.80
2019-02-03T02:22:01.503Z,213.10
2019-02-03T02:23:01.481Z,209.80
2019-02-03T02:24:01.526Z,218.00
2019-02-03T02:25:01.407Z,216.60
2019-02-03T02:26:01.372Z,233.10
2019-02-03T02:27:01.367Z,198.70
2019-02-03T02:28:01.393Z,236.90
2019-02-03T02:29:01.351Z,229.60
2019-02-03T02:30:01.252Z,229.00
2019-02-03T02:31:01.229Z,226.70
2019-02-03T02:32:02.298Z,228.10
2019-02-03T02:33:01.148Z,244.00
2019-02-03T02:34:01.123Z,229.40
2019-02-03T02:35:02.196Z,227.40
2019-02-03T02:36:01.065Z,214.60
2019-02-03T02:37:01.016Z,215.80
2019-02-03T02:38:06.437Z,235.70
2019-02-03T02:39:02.109Z,226.10
2019-02-03T02:40:12.053Z,212.70
2019-02-03T02:41:00.912Z,231.90
2019-02-03T02:42:08.653Z,226.00
2019-02-03T02:43:00.838Z,233.30
2019-02-03T02:44:00.831Z,215.60
2019-02-03T02:45:00.795Z,228.00
2019-02-03T02:46:00.744Z,223.70
2019-02-03T02:47:00.797Z,223.30
2019-02-03T02:48:00.670Z,230.60
2019-02-03T02:49:00.718Z,223.20
2019-02-03T02:50:00.615Z,221.50
2019-02-03T02:51:00.622Z,215.30
2019-02-03T02:52:00.543Z,206.60
2019-02-03T02:53:01.552Z,210.60
2019-02-03T02:54:00.504Z,204.50
2019-02-03T02:55:00.444Z,196.80
2019-02-03T02:56:00.442Z,210.80
2019-02-03T02:57:00.454Z,215.10
2019-02-03T02:58:00.347Z,197.30
2019-02-03T02:59:00.425Z,221.80
2019-02-03T03:00:00.443Z,215.00
2019-02-03T03:01:00.261Z,213.50
2019-02-03T03:02:00.270Z,228.50
2019-02-03T03:03:00.185Z,226.60
2019-02-03T03:04:00.154Z,209.50
2019-02-03T03:05:00.353Z,219.60
2019-02-03T03:06:00.097Z,219.40
2019-02-03T03:07:00.098Z,220.70
2019-02-03T03:08:00.033Z,227.90
2019-02-03T03:08:59.992Z,239.20
2019-02-03T03:09:59.976Z,226.50
2019-02-03T03:10:59.944Z,241.00
2019-02-03T03:11:59.912Z,212.90
2019-02-03T03:12:59.875Z,228.80
2019-02-03T03:13:59.859Z,241.30
2019-02-03T03:14:59.822Z,228.50
2019-02-03T03:15:59.780Z,241.60
2019-02-03T03:16:59.754Z,241.10
2019-02-03T03:17:59.723Z,244.80
2019-02-03T03:18:59.674Z,230.10
2019-02-03T03:19:59.659Z,235.60
2019-02-03T03:20:59.610Z,241.20
2019-02-03T03:21:59.584Z,234.30
2019-02-03T03:23:00.506Z,241.00
2019-02-03T03:23:59.573Z,248.10
2019-02-03T03:24:59.490Z,237.90
2019-02-03T03:25:59.496Z,241.00
2019-02-03T03:26:59.447Z,242.80
2019-02-03T03:27:59.397Z,255.00
2019-02-03T03:28:59.371Z,232.90
2019-02-03T03:29:59.397Z,243.60
2019-02-03T03:30:59.343Z,231.50
2019-02-03T03:31:59.400Z,245.60
2019-02-03T03:32:59.260Z,238.30
2019-02-03T03:33:59.230Z,249.00
2019-02-03T03:34:59.164Z,242.80
2019-02-03T03:35:59.146Z,237.50
2019-02-03T03:36:59.098Z,247.20
2019-02-03T03:37:59.079Z,231.80
2019-02-03T03:38:59.030Z,266.60
2019-02-03T03:39:59.039Z,254.10
2019-02-03T03:40:59.008Z,232.90
2019-02-03T03:41:58.989Z,278.20
2019-02-03T03:42:58.904Z,259.60
2019-02-03T03:43:58.879Z,247.20
2019-02-03T03:44:58.876Z,248.30
2019-02-03T03:45:58.874Z,255.50
2019-02-03T03:46:58.778Z,257.70
2019-02-03T03:47:58.903Z,240.80
2019-02-03T03:48:58.709Z,237.20
2019-02-03T03:49:58.728Z,247.60
2019-02-03T03:50:58.707Z,239.80
2019-02-03T03:51:58.617Z,260.40
2019-02-03T03:52:59.665Z,251.10
2019-02-03T03:53:58.573Z,249.20
2019-02-03T03:54:58.635Z,242.10
2019-02-03T03:55:58.497Z,255.70
2019-02-03T03:56:58.607Z,239.80
2019-02-03T03:57:58.429Z,248.20
2019-02-03T03:58:58.396Z,256.50
2019-02-03T03:59:58.376Z,253.70
2019-02-03T04:00:58.321Z,259.50
2019-02-03T04:01:58.305Z,244.50
2019-02-03T04:02:58.273Z,246.50
2019-02-03T04:03:58.334Z,247.00
2019-02-03T04:04:58.196Z,268.40
2019-02-03T04:05:58.223Z,271.00
2019-02-03T04:06:58.137Z,256.50
2019-02-03T04:07:58.149Z,259.40
2019-02-03T04:08:58.076Z,253.90
2019-02-03T04:09:58.161Z,255.30
2019-02-03T04:10:58.001Z,260.70
2019-02-03T04:11:58.138Z,253.90
2019-02-03T04:12:57.934Z,260.90
2019-02-03T04:13:57.906Z,258.70
2019-02-03T04:14:57.886Z,257.60
2019-02-03T04:15:57.850Z,249.70
2019-02-03T04:16:57.829Z,252.00
2019-02-03T04:17:57.808Z,234.30
2019-02-03T04:18:57.745Z,235.10
2019-02-03T04:19:57.812Z,227.30
2019-02-03T04:20:57.709Z,240.80
2019-02-03T04:21:57.660Z,233.00
2019-02-03T04:22:57.626Z,241.70
2019-02-03T04:23:57.598Z,228.70
2019-02-03T04:24:57.565Z,233.40
2019-02-03T04:25:57.518Z,240.90
2019-02-03T04:26:57.590Z,246.00
2019-02-03T04:27:57.455Z,236.70
2019-02-03T04:28:57.453Z,237.80
2019-02-03T04:29:57.404Z,234.60
2019-02-03T04:30:57.468Z,231.70
2019-02-03T04:31:57.330Z,236.20
2019-02-03T04:32:57.373Z,229.60
2019-02-03T04:33:57.259Z,233.50
2019-02-03T04:34:57.224Z,230.00
2019-02-03T04:35:57.292Z,239.20
2019-02-03T04:36:57.160Z,250.90
2019-02-03T04:37:57.208Z,238.20
2019-02-03T04:38:58.599Z,240.40
2019-02-03T04:39:57.073Z,231.20
2019-02-03T04:40:57.139Z,233.60
2019-02-03T04:41:57.036Z,257.80
2019-02-03T04:42:56.973Z,238.40
2019-02-03T04:43:56.996Z,226.60
2019-02-03T04:44:56.899Z,246.70
2019-02-03T04:45:56.904Z,242.50
2019-02-03T04:46:56.858Z,236.50
2019-02-03T04:47:56.928Z,234.40
2019-02-03T04:48:56.787Z,247.40
2019-02-03T04:49:56.833Z,244.70
2019-02-03T04:50:56.721Z,251.90
2019-02-03T04:51:56.786Z,239.00
2019-02-03T04:52:56.650Z,260.90
2019-02-03T04:53:56.651Z,251.20
2019-02-03T04:54:56.584Z,240.50
2019-02-03T04:55:56.671Z,265.50
2019-02-03T04:56:56.547Z,236.80
2019-02-03T04:57:56.492Z,241.60
2019-02-03T04:58:56.449Z,258.20
2019-02-03T04:59:56.433Z,247.40
2019-02-03T05:00:56.510Z,244.20
2019-02-03T05:01:56.376Z,247.80
2019-02-03T05:02:56.333Z,252.00
2019-02-03T05:03:56.308Z,247.80
2019-02-03T05:04:56.278Z,243.00
2019-02-03T05:05:56.220Z,255.70
2019-02-03T05:06:56.244Z,241.80
2019-02-03T05:07:56.167Z,235.40
2019-02-03T05:08:56.129Z,237.50
2019-02-03T05:09:56.111Z,225.00
2019-02-03T05:10:56.086Z,223.30
2019-02-03T05:11:56.043Z,228.60
2019-02-03T05:12:56.013Z,231.90
2019-02-03T05:13:55.963Z,225.10
2019-02-03T05:14:55.940Z,223.20
2019-02-03T05:15:55.913Z,237.20
2019-02-03T05:16:55.878Z,235.70
2019-02-03T05:17:55.855Z,222.70
2019-02-03T05:18:55.826Z,242.50
2019-02-03T05:19:55.799Z,233.20
2019-02-03T05:20:55.765Z,221.70
2019-02-03T05:21:55.712Z,245.20
2019-02-03T05:22:55.694Z,247.40
2019-02-03T05:23:55.649Z,241.20
2019-02-03T05:24:55.634Z,259.10
2019-02-03T05:25:55.659Z,237.60
2019-02-03T05:26:55.560Z,229.30
2019-02-03T05:27:55.566Z,239.90
2019-02-03T05:28:55.484Z,229.70
2019-02-03T05:29:55.463Z,229.50
2019-02-03T05:30:55.415Z,217.30
2019-02-03T05:31:55.397Z,236.10
2019-02-03T05:32:55.360Z,238.20
2019-02-03T05:33:55.335Z,230.70
2019-02-03T05:34:55.298Z,220.80
2019-02-03T05:35:55.301Z,219.10
2019-02-03T05:36:55.249Z,237.00
2019-02-03T05:37:55.198Z,232.00
2019-02-03T05:38:55.444Z,233.80
2019-02-03T05:39:55.156Z,240.20
2019-02-03T05:40:55.126Z,248.40
2019-02-03T05:41:55.067Z,226.20
2019-02-03T05:42:55.060Z,238.30
2019-02-03T05:43:55.062Z,242.40
2019-02-03T05:44:54.980Z,232.40
2019-02-03T05:45:54.936Z,225.60
2019-02-03T05:46:54.913Z,249.20
2019-02-03T05:47:54.889Z,230.10
2019-02-03T05:48:54.890Z,243.90
2019-02-03T05:49:54.806Z,219.70
2019-02-03T05:50:54.814Z,227.70
2019-02-03T05:51:54.752Z,221.30
2019-02-03T05:52:54.706Z,223.80
2019-02-03T05:53:54.703Z,227.30
2019-02-03T05:54:54.654Z,233.10
2019-02-03T05:55:54.611Z,230.70
2019-02-03T05:56:54.580Z,223.20
2019-02-03T05:57:54.581Z,235.90
2019-02-03T05:58:54.702Z,222.80
2019-02-03T05:59:54.496Z,228.10
2019-02-03T06:00:54.460Z,220.60
2019-02-03T06:01:54.466Z,217.40
2019-02-03T06:02:54.387Z,229.00
2019-02-03T06:03:54.358Z,231.80
2019-02-03T06:04:54.329Z,218.20
2019-02-03T06:05:54.304Z,221.30
2019-02-03T06:06:54.259Z,218.70
2019-02-03T06:07:54.240Z,213.50
2019-02-03T06:08:54.212Z,213.20
2019-02-03T06:09:54.230Z,212.50
2019-02-03T06:10:54.130Z,220.60
2019-02-03T06:11:54.128Z,213.50
2019-02-03T06:12:54.067Z,213.10
2019-02-03T06:13:54.042Z,216.60
2019-02-03T06:14:54.032Z,212.50
2019-02-03T06:15:53.985Z,201.50
2019-02-03T06:16:54.000Z,203.90
2019-02-03T06:17:53.932Z,212.60
2019-02-03T06:18:53.879Z,213.70
2019-02-03T06:19:53.947Z,214.40
2019-02-03T06:20:53.829Z,208.90
2019-02-03T06:21:53.814Z,204.50
2019-02-03T06:22:53.784Z,212.80
2019-02-03T06:23:53.718Z,215.00
2019-02-03T06:24:53.677Z,198.00
2019-02-03T06:25:53.663Z,210.20
2019-02-03T06:26:53.630Z,188.30
2019-02-03T06:27:53.639Z,201.70
2019-02-03T06:28:53.561Z,212.40
2019-02-03T06:29:53.531Z,200.40
2019-02-03T06:30:53.490Z,199.10
2019-02-03T06:31:53.452Z,195.30
2019-02-03T06:32:53.439Z,189.40
2019-02-03T06:33:53.388Z,196.00
2019-02-03T06:34:53.353Z,187.50
2019-02-03T06:35:53.371Z,185.20
2019-02-03T06:36:53.303Z,182.80
2019-02-03T06:37:53.274Z,186.90
2019-02-03T06:38:53.215Z,176.90
2019-02-03T06:39:53.191Z,185.90
2019-02-03T06:40:53.154Z,171.60
2019-02-03T06:41:53.127Z,178.70
2019-02-03T06:42:53.096Z,177.30
2019-02-03T06:43:53.106Z,177.60
2019-02-03T06:44:53.027Z,168.70
2019-02-03T06:45:53.013Z,172.20
2019-02-03T06:46:52.993Z,170.10
2019-02-03T06:47:52.954Z,177.10
2019-02-03T06:48:52.900Z,158.10
2019-02-03T06:49:52.884Z,149.30
2019-02-03T06:50:52.854Z,169.40
2019-02-03T06:51:52.972Z,155.10
2019-02-03T06:52:52.821Z,165.60
2019-02-03T06:53:52.921Z,155.80
2019-02-03T06:54:52.774Z,156.70
2019-02-03T06:55:52.671Z,150.20
2019-02-03T06:56:52.647Z,147.30
2019-02-03T06:57:52.603Z,143.30
2019-02-03T06:58:52.570Z,148.90
2019-02-03T06:59:52.543Z,143.00
2019-02-03T07:00:52.504Z,136.20
2019-02-03T07:01:52.466Z,134.90
2019-02-03T07:02:52.438Z,139.20
2019-02-03T07:03:52.413Z,136.10
2019-02-03T07:04:52.375Z,122.70
2019-02-03T07:05:52.346Z,130.30
2019-02-03T07:06:52.338Z,127.40
2019-02-03T07:07:52.299Z,128.10
2019-02-03T07:08:52.248Z,127.30
2019-02-03T07:10:00.572Z,132.40
2019-02-03T07:10:52.182Z,127.60
2019-02-03T07:11:52.152Z,122.30
2019-02-03T07:12:52.115Z,119.10
2019-02-03T07:13:52.098Z,109.10
2019-02-03T07:14:52.058Z,119.80
2019-02-03T07:15:52.024Z,125.20
2019-02-03T07:16:51.991Z,114.10
2019-02-03T07:17:51.950Z,117.80
2019-02-03T07:18:51.921Z,112.20
2019-02-03T07:19:51.898Z,111.30
2019-02-03T07:20:51.857Z,102.70
2019-02-03T07:21:51.827Z,105.60
2019-02-03T07:22:51.793Z,102.50
2019-02-03T07:23:51.755Z,99.70
2019-02-03T07:24:51.723Z,105.90
2019-02-03T07:25:51.697Z,95.70
2019-02-03T07:26:51.661Z,98.90
2019-02-03T07:27:51.630Z,101.50
2019-02-03T07:28:51.592Z,97.10
2019-02-03T07:29:51.631Z,95.20
2019-02-03T07:30:51.531Z,95.80
2019-02-03T07:31:51.503Z,82.40
2019-02-03T07:32:51.562Z,84.00
2019-02-03T07:33:51.426Z,90.70
2019-02-03T07:34:51.398Z,99.40
2019-02-03T07:35:51.470Z,87.70
2019-02-03T07:36:51.332Z,90.80
2019-02-03T07:37:51.303Z,89.60
2019-02-03T07:38:51.277Z,82.20
2019-02-03T07:39:51.297Z,95.30
2019-02-03T07:40:51.218Z,79.40
2019-02-03T07:41:51.169Z,83.30
2019-02-03T07:42:51.138Z,72.50
2019-02-03T07:43:51.105Z,72.10
2019-02-03T07:44:51.083Z,76.60
2019-02-03T07:45:51.143Z,67.50
2019-02-03T07:46:51.008Z,65.80
2019-02-03T07:47:51.020Z,64.70
2019-02-03T07:48:50.960Z,68.70
2019-02-03T07:49:50.980Z,68.10
2019-02-03T07:50:50.877Z,63.50
2019-02-03T07:51:50.938Z,72.30
2019-02-03T07:52:50.809Z,73.20
2019-02-03T07:53:50.791Z,63.90
2019-02-03T07:54:50.778Z,65.20
2019-02-03T07:55:50.725Z,65.10
2019-02-03T07:56:50.688Z,63.60
2019-02-03T07:57:50.655Z,63.00
2019-02-03T07:58:50.685Z,57.90
2019-02-03T07:59:50.594Z,53.50
2019-02-03T08:00:50.551Z,61.90
2019-02-03T08:01:50.528Z,55.90
2019-02-03T08:02:50.489Z,59.00
2019-02-03T08:03:50.461Z,65.90
2019-02-03T08:04:50.418Z,65.90
2019-02-03T08:05:50.399Z,60.40
2019-02-03T08:06:50.362Z,57.40
2019-02-03T08:07:50.326Z,61.10
2019-02-03T08:08:50.296Z,57.40
2019-02-03T08:09:50.259Z,62.60
2019-02-03T08:10:50.230Z,55.90
2019-02-03T08:11:50.198Z,61.40
2019-02-03T08:12:50.168Z,63.40
2019-02-03T08:13:50.144Z,59.30
2019-02-03T08:14:50.102Z,50.40
2019-02-03T08:15:50.061Z,57.80
2019-02-03T08:16:50.049Z,48.50
2019-02-03T08:17:50.017Z,55.10
2019-02-03T08:18:49.962Z,52.80
2019-02-03T08:19:49.957Z,55.90
2019-02-03T08:20:49.922Z,46.60
2019-02-03T08:21:49.857Z,53.00
2019-02-03T08:22:49.854Z,50.90
2019-02-03T08:23:51.273Z,54.60
2019-02-03T08:24:49.768Z,47.90
2019-02-03T08:25:49.743Z,51.30
2019-02-03T08:26:49.714Z,49.90
2019-02-03T08:27:49.684Z,52.90
2019-02-03T08:28:49.672Z,50.60
2019-02-03T08:29:49.621Z,52.80
2019-02-03T08:30:49.599Z,52.30
2019-02-03T08:31:49.568Z,52.10
2019-02-03T08:32:49.509Z,50.40
2019-02-03T08:33:49.485Z,49.00
2019-02-03T08:34:49.598Z,48.10
2019-02-03T08:35:49.420Z,42.40
2019-02-03T08:36:49.477Z,51.10
2019-02-03T08:37:49.534Z,48.10
2019-02-03T08:38:49.319Z,47.40
2019-02-03T08:39:49.296Z,42.80
2019-02-03T08:40:49.256Z,45.10
2019-02-03T08:41:49.225Z,46.40
2019-02-03T08:42:49.198Z,47.00
2019-02-03T08:43:49.154Z,49.50
2019-02-03T08:44:49.129Z,48.00
2019-02-03T08:45:50.202Z,44.90
2019-02-03T08:46:49.063Z,45.30
2019-02-03T08:47:49.033Z,41.50
2019-02-03T08:48:49.028Z,45.00
2019-02-03T08:49:49.098Z,43.60
2019-02-03T08:50:49.115Z,44.50
2019-02-03T08:51:49.173Z,45.60
2019-02-03T08:52:51.321Z,44.40
2019-02-03T08:53:49.142Z,43.80
2019-02-03T08:54:58.016Z,45.20
2019-02-03T08:55:48.768Z,51.80
2019-02-03T08:56:48.781Z,49.00
2019-02-03T08:57:48.731Z,43.60
2019-02-03T08:58:48.723Z,39.00
2019-02-03T08:59:48.635Z,47.40
2019-02-03T09:00:48.636Z,38.70
2019-02-03T09:01:48.582Z,35.90
2019-02-03T09:02:48.530Z,41.10
2019-02-03T09:03:48.548Z,42.00
2019-02-03T09:04:48.464Z,43.10
2019-02-03T09:05:48.445Z,38.20
2019-02-03T09:06:48.417Z,37.80
2019-02-03T09:07:48.484Z,34.70
2019-02-03T09:08:48.347Z,31.50
2019-02-03T09:09:48.322Z,31.90
2019-02-03T09:10:48.985Z,30.00
2019-02-03T09:11:48.256Z,35.60
2019-02-03T09:12:48.235Z,34.80
2019-02-03T09:13:48.212Z,30.10
2019-02-03T09:14:48.185Z,32.60
2019-02-03T09:15:48.426Z,31.70
2019-02-03T09:16:48.174Z,30.70
2019-02-03T09:17:48.086Z,27.20
2019-02-03T09:18:48.033Z,27.80
2019-02-03T09:19:48.314Z,31.50
2019-02-03T09:20:48.404Z,25.90
2019-02-03T09:21:47.956Z,24.70
2019-02-03T09:22:47.948Z,22.20
2019-02-03T09:23:47.914Z,24.70
2019-02-03T09:24:47.904Z,24.30
2019-02-03T09:25:47.862Z,21.70
2019-02-03T09:26:47.807Z,20.90
2019-02-03T09:27:48.792Z,18.10
2019-02-03T09:28:47.760Z,15.80
2019-02-03T09:29:47.811Z,19.20
2019-02-03T09:30:47.698Z,19.60
2019-02-03T09:31:47.678Z,21.50
2019-02-03T09:32:47.655Z,19.00
2019-02-03T09:33:47.633Z,19.40
2019-02-03T09:34:47.583Z,14.10
2019-02-03T09:35:47.552Z,16.50
2019-02-03T09:36:47.529Z,14.20
2019-02-03T09:37:47.511Z,15.70
2019-02-03T09:38:47.471Z,15.10
2019-02-03T09:39:47.528Z,17.40
2019-02-03T09:40:47.410Z,19.90
2019-02-03T09:41:47.403Z,15.10
2019-02-03T09:42:47.377Z,12.70
2019-02-03T09:43:47.351Z,15.10
2019-02-03T09:44:47.300Z,13.10
2019-02-03T09:45:47.279Z,15.10
2019-02-03T09:46:47.265Z,12.70
2019-02-03T09:47:47.219Z,15.20
2019-02-03T09:48:47.202Z,16.30
2019-02-03T09:49:47.164Z,14.60
2019-02-03T09:50:47.154Z,15.30
2019-02-03T09:51:47.129Z,15.90
2019-02-03T09:52:47.086Z,14.00
2019-02-03T09:53:47.042Z,16.20
2019-02-03T09:54:50.073Z,14.80
2019-02-03T09:55:46.989Z,11.50
2019-02-03T09:56:46.958Z,13.90
2019-02-03T09:57:47.002Z,16.20
2019-02-03T09:58:46.911Z,15.40
2019-02-03T09:59:46.878Z,14.50
2019-02-03T10:00:46.846Z,12.20
2019-02-03T10:01:46.877Z,13.50
2019-02-03T10:02:46.805Z,13.10
2019-02-03T10:03:46.875Z,9.20
2019-02-03T10:04:46.745Z,11.00
2019-02-03T10:05:46.805Z,9.70
2019-02-03T10:06:46.689Z,12.00
2019-02-03T10:07:46.660Z,10.80
2019-02-03T10:08:46.691Z,13.90
2019-02-03T10:09:46.606Z,11.90
2019-02-03T10:10:46.562Z,11.30
2019-02-03T10:11:46.550Z,12.50
2019-02-03T10:12:46.528Z,11.70
2019-02-03T10:13:46.493Z,12.10
2019-02-03T10:14:46.530Z,12.00
2019-02-03T10:15:46.440Z,12.40
2019-02-03T10:16:47.573Z,10.20
2019-02-03T10:17:46.404Z,11.00
2019-02-03T10:18:46.450Z,11.90
2019-02-03T10:19:46.324Z,9.30
2019-02-03T10:20:46.398Z,8.70
2019-02-03T10:21:46.373Z,12.40
2019-02-03T10:22:46.242Z,12.90
2019-02-03T10:23:46.323Z,10.30
2019-02-03T10:24:46.179Z,16.20
2019-02-03T10:25:46.157Z,14.30
2019-02-03T10:26:46.119Z,14.40
2019-02-03T10:27:46.101Z,12.60
2019-02-03T10:28:46.754Z,11.30
2019-02-03T10:29:48.138Z,10.70
2019-02-03T10:30:46.073Z,11.80
2019-02-03T10:31:47.095Z,12.90
2019-02-03T10:32:45.959Z,10.20
2019-02-03T10:33:45.957Z,11.90
2019-02-03T10:34:45.890Z,8.30
2019-02-03T10:36:00.736Z,11.20
2019-02-03T10:36:45.844Z,8.20
2019-02-03T10:38:06.837Z,11.50
2019-02-03T10:38:45.789Z,10.00
2019-02-03T10:39:45.798Z,12.10
2019-02-03T10:40:45.744Z,11.00
2019-02-03T10:41:45.832Z,10.30
2019-02-03T10:42:45.693Z,10.50
2019-02-03T10:43:45.722Z,9.50
2019-02-03T10:44:45.632Z,10.00
2019-02-03T10:45:47.703Z,11.00
2019-02-03T10:46:45.569Z,8.90
2019-02-03T10:47:45.556Z,9.70
2019-02-03T10:48:45.501Z,9.00
2019-02-03T10:49:46.718Z,11.10
2019-02-03T10:50:45.435Z,7.20
2019-02-03T10:51:45.494Z,9.60
2019-02-03T10:52:45.406Z,9.70
2019-02-03T10:53:47.466Z,7.30
2019-02-03T10:54:45.324Z,11.90
2019-02-03T10:55:46.315Z,10.80
2019-02-03T10:56:45.299Z,11.80
2019-02-03T10:57:45.306Z,10.90
2019-02-03T10:58:45.208Z,12.60
2019-02-03T10:59:51.768Z,9.40
2019-02-03T11:00:45.163Z,9.00
2019-02-03T11:01:45.119Z,10.00
2019-02-03T11:02:46.203Z,9.60
2019-02-03T11:03:45.100Z,8.80
2019-02-03T11:04:47.113Z,12.60
2019-02-03T11:05:45.010Z,10.20
2019-02-03T11:06:46.125Z,11.10
2019-02-03T11:07:44.932Z,10.00
2019-02-03T11:08:44.989Z,10.40
2019-02-03T11:09:44.884Z,9.20
2019-02-03T11:10:44.886Z,7.20
2019-02-03T11:11:44.822Z,9.90
2019-02-03T11:12:44.901Z,9.10
2019-02-03T11:13:44.782Z,14.20
2019-02-03T11:14:44.852Z,9.40
2019-02-03T11:15:44.716Z,10.10
2019-02-03T11:16:59.259Z,11.30
2019-02-03T11:17:44.676Z,9.30
2019-02-03T11:18:44.616Z,10.60
2019-02-03T11:19:44.596Z,7.00
2019-02-03T11:20:51.299Z,8.70
2019-02-03T11:21:44.541Z,8.10
2019-02-03T11:22:46.646Z,8.70
2019-02-03T11:23:44.517Z,9.60
2019-02-03T11:24:46.559Z,9.70
2019-02-03T11:25:44.409Z,6.50
2019-02-03T11:26:46.412Z,8.60
2019-02-03T11:27:44.383Z,7.90
2019-02-03T11:28:59.227Z,7.70
2019-02-03T11:29:44.316Z,7.20
2019-02-03T11:30:51.354Z,8.00
2019-02-03T11:31:44.244Z,8.40
2019-02-03T11:32:44.328Z,9.80
2019-02-03T11:33:44.182Z,8.10
2019-02-03T11:34:44.152Z,7.10
2019-02-03T11:35:44.125Z,7.90
2019-02-03T11:36:44.095Z,9.40
2019-02-03T11:37:44.072Z,5.80
2019-02-03T11:38:44.048Z,8.00
2019-02-03T11:39:44.023Z,7.30
2019-02-03T11:40:43.990Z,7.90
2019-02-03T11:41:49.293Z,7.20
2019-02-03T11:42:43.940Z,7.00
2019-02-03T11:43:43.906Z,9.00
2019-02-03T11:44:43.862Z,9.20
2019-02-03T11:45:43.843Z,6.60
2019-02-03T11:46:43.814Z,7.10
2019-02-03T11:47:43.775Z,7.80
2019-02-03T11:48:43.740Z,9.60
2019-02-03T11:49:43.711Z,8.40
2019-02-03T11:50:43.679Z,9.80
2019-02-03T11:51:43.656Z,7.60
2019-02-03T11:52:43.643Z,5.50
2019-02-03T11:53:43.595Z,6.50
2019-02-03T11:54:43.638Z,7.40
2019-02-03T11:55:43.536Z,12.30
2019-02-03T11:56:43.502Z,6.00
2019-02-03T11:57:43.481Z,8.40
2019-02-03T11:58:43.445Z,9.60
2019-02-03T11:59:43.410Z,4.90
2019-02-03T12:00:43.513Z,10.00
2019-02-03T12:01:43.467Z,7.50
2019-02-03T12:02:43.333Z,7.50
2019-02-03T12:03:43.315Z,6.80
2019-02-03T12:04:43.275Z,7.40
2019-02-03T12:05:43.258Z,8.20
2019-02-03T12:06:43.225Z,14.30
2019-02-03T12:07:43.198Z,7.30
2019-02-03T12:08:43.229Z,7.70
2019-02-03T12:09:43.151Z,6.00
2019-02-03T12:10:43.090Z,10.60
2019-02-03T12:11:43.078Z,6.10
2019-02-03T12:12:43.046Z,7.80
2019-02-03T12:13:43.024Z,8.60
2019-02-03T12:14:42.990Z,7.60
2019-02-03T12:15:42.938Z,10.10
2019-02-03T12:16:42.914Z,9.00
2019-02-03T12:17:42.893Z,8.70
2019-02-03T12:18:42.856Z,9.30
2019-02-03T12:19:42.824Z,8.00
2019-02-03T12:20:42.810Z,7.70
2019-02-03T12:21:42.776Z,5.90
2019-02-03T12:22:42.780Z,6.90
2019-02-03T12:23:42.706Z,8.60
2019-02-03T12:24:42.670Z,6.50
2019-02-03T12:25:42.666Z,6.40
2019-02-03T12:26:42.638Z,8.00
2019-02-03T12:27:42.580Z,8.30
2019-02-03T12:28:42.583Z,10.60
2019-02-03T12:29:42.615Z,10.10
2019-02-03T12:30:42.496Z,6.70
2019-02-03T12:31:42.522Z,7.30
2019-02-03T12:32:42.442Z,8.30
2019-02-03T12:33:42.432Z,5.90
2019-02-03T12:34:42.430Z,6.60
2019-02-03T12:35:42.348Z,11.10
2019-02-03T12:36:42.348Z,6.20
2019-02-03T12:37:42.301Z,7.30
2019-02-03T12:38:42.361Z,7.40
2019-02-03T12:39:42.228Z,6.30
2019-02-03T12:40:42.204Z,8.10